createdAt,value
2022-09-28T00:02:22.641Z,20.70
2022-09-28T00:04:50.591Z,19.00
2022-09-28T00:07:18.353Z,19.00
2022-09-28T00:09:46.384Z,16.80
2022-09-28T00:12:14.157Z,17.00
2022-09-28T00:14:44.272Z,16.60
2022-09-28T00:17:11.983Z,16.60
2022-09-28T00:19:40.010Z,14.70
2022-09-28T00:22:07.972Z,16.90
2022-09-28T00:24:36.458Z,15.40
2022-09-28T00:27:04.258Z,17.20
2022-09-28T00:29:33.764Z,16.50
2022-09-28T00:32:04.458Z,16.10
2022-09-28T00:34:34.576Z,18.80
2022-09-28T00:37:05.765Z,19.80
2022-09-28T00:39:37.682Z,15.30
2022-09-28T00:42:11.903Z,17.20
2022-09-28T00:44:45.855Z,16.10
2022-09-28T00:47:30.725Z,15.40
2022-09-28T00:50:01.941Z,17.90
2022-09-28T00:52:33.777Z,15.10
2022-09-28T00:55:06.758Z,17.90
2022-09-28T00:57:38.875Z,17.80
2022-09-28T01:00:19.303Z,16.60
2022-09-28T01:02:48.888Z,19.30
2022-09-28T01:05:19.169Z,16.80
2022-09-28T01:07:49.244Z,16.00
2022-09-28T01:10:17.990Z,17.40
2022-09-28T01:12:46.699Z,18.40
2022-09-28T01:15:15.236Z,16.30
2022-09-28T01:17:57.075Z,15.90
2022-09-28T01:20:43.749Z,17.00
2022-09-28T01:23:28.762Z,18.90
2022-09-28T01:26:01.795Z,17.70
2022-09-28T01:28:30.016Z,15.90
2022-09-28T01:31:03.014Z,21.80
2022-09-28T01:33:32.711Z,17.50
2022-09-28T01:36:05.047Z,18.80
2022-09-28T01:38:37.243Z,18.40
2022-09-28T01:41:05.942Z,18.60
2022-09-28T01:43:35.695Z,18.10
2022-09-28T01:46:07.646Z,19.00
2022-09-28T01:48:39.264Z,15.70
2022-09-28T01:51:10.457Z,15.90
2022-09-28T01:53:41.202Z,17.40
2022-09-28T01:56:17.820Z,18.80
2022-09-28T01:58:48.653Z,19.40
2022-09-28T02:01:18.132Z,16.80
2022-09-28T02:03:48.848Z,15.90
2022-09-28T02:06:20.034Z,17.20
2022-09-28T02:08:50.709Z,15.50
2022-09-28T02:11:20.030Z,18.30
2022-09-28T02:13:49.987Z,17.40
2022-09-28T02:16:19.936Z,15.20
2022-09-28T02:18:50.520Z,13.70
2022-09-28T02:21:23.020Z,15.30
2022-09-28T02:23:53.941Z,17.30
2022-09-28T02:26:24.763Z,14.40
2022-09-28T02:28:52.929Z,11.40
2022-09-28T02:31:20.811Z,11.70
2022-09-28T02:33:51.133Z,13.20
2022-09-28T02:36:19.201Z,12.60
2022-09-28T02:38:46.956Z,13.80
2022-09-28T02:41:20.157Z,12.20
2022-09-28T02:43:52.951Z,8.40
2022-09-28T02:49:17.361Z,6.30
2022-09-28T02:51:47.166Z,7.90
2022-09-28T02:54:28.883Z,6.40
2022-09-28T02:57:03.073Z,7.90
2022-09-28T02:59:43.788Z,6.70
2022-09-28T03:02:18.733Z,6.50
2022-09-28T03:04:52.717Z,7.60
2022-09-28T03:07:27.767Z,9.40
2022-09-28T03:09:59.118Z,5.60
2022-09-28T03:12:29.482Z,6.00
2022-09-28T03:15:08.515Z,6.80
2022-09-28T03:17:36.767Z,8.00
2022-09-28T03:20:06.187Z,4.90
2022-09-28T03:22:34.163Z,6.80
2022-09-28T03:25:01.773Z,5.40
2022-09-28T03:27:30.073Z,8.10
2022-09-28T03:29:57.965Z,5.00
2022-09-28T03:32:25.705Z,6.20
2022-09-28T03:34:53.978Z,5.00
2022-09-28T03:37:22.198Z,6.20
2022-09-28T03:39:50.001Z,5.10
2022-09-28T03:42:18.095Z,4.40
2022-09-28T03:44:48.668Z,6.50
2022-09-28T03:47:17.690Z,5.70
2022-09-28T03:49:45.811Z,4.60
2022-09-28T03:52:14.193Z,6.30
2022-09-28T03:54:45.732Z,6.50
2022-09-28T03:57:17.096Z,7.70
2022-09-28T03:59:44.720Z,6.10
2022-09-28T04:02:12.797Z,5.20
2022-09-28T04:04:41.151Z,6.80
2022-09-28T04:07:08.809Z,7.50
2022-09-28T04:09:36.487Z,6.40
2022-09-28T04:12:05.009Z,6.10
2022-09-28T04:14:33.903Z,6.80
2022-09-28T04:17:01.661Z,6.50
2022-09-28T04:19:32.465Z,9.90
2022-09-28T04:22:25.209Z,9.70
2022-09-28T04:24:53.219Z,9.90
2022-09-28T04:27:35.581Z,9.50
2022-09-28T04:30:04.266Z,8.30
2022-09-28T04:32:34.192Z,8.00
2022-09-28T04:35:02.198Z,8.40
2022-09-28T04:37:31.369Z,7.40
2022-09-28T04:39:59.176Z,7.70
2022-09-28T04:42:27.798Z,7.10
2022-09-28T04:44:57.520Z,9.40
2022-09-28T04:47:25.267Z,7.20
2022-09-28T04:50:29.494Z,9.20
2022-09-28T04:53:18.454Z,8.50
2022-09-28T04:55:54.463Z,7.40
2022-09-28T04:58:23.095Z,6.80
2022-09-28T05:00:51.347Z,7.50
2022-09-28T05:03:38.785Z,8.10
2022-09-28T05:06:36.347Z,8.70
2022-09-28T05:09:07.393Z,19.40
2022-09-28T05:11:35.108Z,8.70
2022-09-28T05:14:05.887Z,10.60
2022-09-28T05:16:34.097Z,8.00
2022-09-28T05:19:21.079Z,11.80
2022-09-28T05:21:49.559Z,8.50
2022-09-28T05:24:17.431Z,6.80
2022-09-28T05:26:51.022Z,14.50
2022-09-28T05:29:20.247Z,10.80
2022-09-28T05:32:07.419Z,12.90
2022-09-28T05:34:38.180Z,11.70
2022-09-28T05:37:06.056Z,8.00
2022-09-28T05:39:34.182Z,9.00
2022-09-28T05:42:01.993Z,13.20
2022-09-28T05:44:30.788Z,8.50
2022-09-28T05:46:59.211Z,9.90
2022-09-28T05:49:28.808Z,13.10
2022-09-28T05:51:56.415Z,11.10
2022-09-28T05:54:25.199Z,12.70
2022-09-28T05:56:53.176Z,9.80
2022-09-28T05:59:22.063Z,8.50
2022-09-28T06:01:51.880Z,7.50
2022-09-28T06:04:20.331Z,8.50
2022-09-28T06:06:49.399Z,7.70
2022-09-28T06:09:17.921Z,9.10
2022-09-28T06:12:11.694Z,7.80
2022-09-28T06:14:49.909Z,6.20
2022-09-28T06:17:17.771Z,5.70
2022-09-28T06:19:51.838Z,11.00
2022-09-28T06:22:27.366Z,6.60
2022-09-28T06:25:07.775Z,7.90
2022-09-28T06:27:39.052Z,7.70
2022-09-28T06:30:07.715Z,8.40
2022-09-28T06:32:35.451Z,7.20
2022-09-28T06:35:03.658Z,8.80
2022-09-28T06:37:32.707Z,7.70
2022-09-28T06:40:02.153Z,5.90
2022-09-28T06:42:30.833Z,7.00
2022-09-28T06:48:09.491Z,7.10
2022-09-28T06:50:41.036Z,8.60
2022-09-28T06:53:29.338Z,7.30
2022-09-28T06:56:04.723Z,6.30
2022-09-28T06:58:33.111Z,7.00
2022-09-28T07:01:01.959Z,7.20
2022-09-28T07:03:35.834Z,10.20
2022-09-28T07:06:23.565Z,6.00
2022-09-28T07:09:30.748Z,5.00
2022-09-28T07:12:29.634Z,4.80
2022-09-28T07:15:02.252Z,5.90
2022-09-28T07:17:31.504Z,5.70
2022-09-28T07:20:14.166Z,4.10
2022-09-28T07:22:44.545Z,3.60
2022-09-28T07:25:18.779Z,3.90
2022-09-28T07:27:56.729Z,4.70
2022-09-28T07:30:50.635Z,3.40
2022-09-28T07:33:35.772Z,3.60
2022-09-28T07:36:20.736Z,3.90
2022-09-28T07:38:49.049Z,3.20
2022-09-28T07:41:32.039Z,3.10
2022-09-28T07:44:05.646Z,3.30
2022-09-28T07:46:35.654Z,2.10
2022-09-28T07:49:11.354Z,3.80
2022-09-28T07:52:02.920Z,6.10
2022-09-28T07:54:31.490Z,3.10
2022-09-28T07:57:16.347Z,3.80
2022-09-28T08:00:05.434Z,4.10
2022-09-28T08:02:52.005Z,3.40
2022-09-28T08:05:24.208Z,3.90
2022-09-28T08:07:52.682Z,3.80
2022-09-28T08:10:20.291Z,3.00
2022-09-28T08:13:23.486Z,3.00
2022-09-28T08:16:16.969Z,2.70
2022-09-28T08:18:59.077Z,4.60
2022-09-28T08:21:45.408Z,3.40
2022-09-28T08:24:14.994Z,3.90
2022-09-28T08:26:43.273Z,2.30
2022-09-28T08:29:12.381Z,2.30
2022-09-28T08:32:08.305Z,3.10
2022-09-28T08:34:36.286Z,3.10
2022-09-28T08:37:31.491Z,2.40
2022-09-28T08:40:19.435Z,2.10
2022-09-28T08:43:06.239Z,4.90
2022-09-28T08:45:52.975Z,3.40
2022-09-28T08:48:52.242Z,2.50
2022-09-28T08:51:55.178Z,2.60
2022-09-28T08:54:48.900Z,3.30
2022-09-28T08:57:27.517Z,2.10
2022-09-28T08:59:57.096Z,2.70
2022-09-28T09:02:36.233Z,1.80
2022-09-28T09:05:39.138Z,6.40
2022-09-28T09:08:15.408Z,2.70
2022-09-28T09:10:48.159Z,5.70
2022-09-28T09:13:31.001Z,2.50
2022-09-28T09:16:02.685Z,2.60
2022-09-28T09:19:02.715Z,2.30
2022-09-28T09:21:48.106Z,4.10
2022-09-28T09:24:21.418Z,2.50
2022-09-28T09:26:54.891Z,3.80
2022-09-28T09:29:29.510Z,6.60
2022-09-28T09:32:06.876Z,4.00
2022-09-28T09:34:51.009Z,4.00
2022-09-28T09:38:02.385Z,3.70
2022-09-28T09:40:57.633Z,3.50
2022-09-28T09:43:59.390Z,4.30
2022-09-28T09:46:50.363Z,2.50
2022-09-28T09:49:38.097Z,2.30
2022-09-28T09:52:11.333Z,2.80
2022-09-28T09:57:10.497Z,3.80
2022-09-28T09:59:59.864Z,4.70
2022-09-28T10:02:43.526Z,2.10
2022-09-28T10:05:22.230Z,1.90
2022-09-28T10:07:53.400Z,2.20
2022-09-28T10:10:25.025Z,2.90
2022-09-28T10:12:55.862Z,3.30
2022-09-28T10:15:25.784Z,3.00
2022-09-28T10:18:06.469Z,2.30
2022-09-28T10:20:53.069Z,3.00
2022-09-28T10:23:33.514Z,2.40
2022-09-28T10:26:05.299Z,2.90
2022-09-28T10:28:35.502Z,2.90
2022-09-28T10:31:17.992Z,2.10
2022-09-28T10:33:45.958Z,2.60
2022-09-28T10:36:15.463Z,3.30
2022-09-28T10:38:47.806Z,3.10
2022-09-28T10:41:27.275Z,2.00
2022-09-28T10:44:06.556Z,3.70
2022-09-28T10:46:59.502Z,2.80
2022-09-28T10:49:28.449Z,2.60
2022-09-28T10:51:58.386Z,2.70
2022-09-28T10:54:31.322Z,3.20
2022-09-28T10:57:00.750Z,4.10
2022-09-28T10:59:46.746Z,3.60
2022-09-28T11:02:39.589Z,5.30
2022-09-28T11:05:27.284Z,3.40
2022-09-28T11:07:59.594Z,3.70
2022-09-28T11:10:33.921Z,2.50
2022-09-28T11:13:13.642Z,4.00
2022-09-28T11:15:44.801Z,2.60
2022-09-28T11:18:25.306Z,2.80
2022-09-28T11:21:09.657Z,2.50
2022-09-28T11:23:40.556Z,3.80
2022-09-28T11:26:18.750Z,2.20
2022-09-28T11:28:50.330Z,2.40
2022-09-28T11:31:27.091Z,3.40
2022-09-28T11:34:06.363Z,3.80
2022-09-28T11:37:01.842Z,3.40
2022-09-28T11:39:34.968Z,2.30
2022-09-28T11:44:37.929Z,2.00
2022-09-28T11:47:28.008Z,5.60
2022-09-28T11:49:59.809Z,4.60
2022-09-28T11:52:31.228Z,5.10
2022-09-28T11:55:02.361Z,2.10
2022-09-28T11:57:35.392Z,2.50
2022-09-28T12:00:06.179Z,3.10
2022-09-28T12:02:46.827Z,5.30
2022-09-28T12:05:20.875Z,3.50
2022-09-28T12:07:53.080Z,3.00
2022-09-28T12:10:45.582Z,4.20
2022-09-28T12:13:17.122Z,3.70
2022-09-28T12:16:16.816Z,3.10
2022-09-28T12:18:38.868Z,2.60
2022-09-28T12:21:15.042Z,2.30
2022-09-28T12:23:44.113Z,2.50
2022-09-28T12:26:19.153Z,3.30
2022-09-28T12:28:48.975Z,3.00
2022-09-28T12:31:20.164Z,3.00
2022-09-28T12:33:49.249Z,2.70
2022-09-28T12:36:25.782Z,3.60
2022-09-28T12:39:19.160Z,2.00
2022-09-28T12:41:55.621Z,5.00
2022-09-28T12:44:33.264Z,2.50
2022-09-28T12:47:09.722Z,2.20
2022-09-28T12:52:37.105Z,2.50
2022-09-28T12:55:14.739Z,5.30
2022-09-28T12:57:48.633Z,2.30
2022-09-28T13:00:18.113Z,1.60
2022-09-28T13:02:59.770Z,1.60
2022-09-28T13:05:35.905Z,2.20
2022-09-28T13:08:07.853Z,2.50
2022-09-28T13:10:39.210Z,2.60
2022-09-28T13:13:15.028Z,3.00
2022-09-28T13:15:49.255Z,2.20
2022-09-28T13:18:21.085Z,3.20
2022-09-28T13:20:54.125Z,4.60
2022-09-28T13:23:25.998Z,2.60
2022-09-28T13:25:55.891Z,3.90
2022-09-28T13:28:27.114Z,2.50
2022-09-28T13:30:56.088Z,2.10
2022-09-28T13:33:29.039Z,1.50
2022-09-28T13:35:57.102Z,3.00
2022-09-28T13:38:43.384Z,2.30
2022-09-28T13:41:12.836Z,3.30
2022-09-28T13:43:55.670Z,1.60
2022-09-28T13:46:31.067Z,2.90
2022-09-28T13:49:04.438Z,2.20
2022-09-28T13:51:37.856Z,2.10
2022-09-28T13:54:17.287Z,2.30
2022-09-28T13:56:49.357Z,3.60
2022-09-28T13:59:19.462Z,1.90
2022-09-28T14:01:52.082Z,2.60
2022-09-28T14:04:21.335Z,4.10
2022-09-28T14:06:54.797Z,3.30
2022-09-28T14:09:39.298Z,1.60
2022-09-28T14:12:21.341Z,2.80
2022-09-28T14:14:50.178Z,2.70
2022-09-28T14:17:36.261Z,3.40
2022-09-28T14:20:06.763Z,2.10
2022-09-28T14:22:39.258Z,2.60
2022-09-28T14:25:13.820Z,1.90
2022-09-28T14:27:52.584Z,3.20
2022-09-28T14:30:22.258Z,3.80
2022-09-28T14:32:53.563Z,3.10
2022-09-28T14:35:24.840Z,2.80
2022-09-28T14:38:13.555Z,4.10
2022-09-28T14:41:09.874Z,2.50
2022-09-28T14:43:58.132Z,5.40
2022-09-28T14:46:44.197Z,2.60
2022-09-28T14:49:30.529Z,3.20
2022-09-28T14:52:02.330Z,3.40
2022-09-28T14:54:50.842Z,3.30
2022-09-28T14:57:20.281Z,9.20
2022-09-28T14:59:48.710Z,5.80
2022-09-28T15:02:22.164Z,4.60
2022-09-28T15:07:21.581Z,5.40
2022-09-28T15:09:50.729Z,6.00
2022-09-28T15:12:20.377Z,11.60
2022-09-28T15:14:50.870Z,4.00
2022-09-28T15:17:21.063Z,4.70
2022-09-28T15:19:53.704Z,5.30
2022-09-28T15:22:21.937Z,5.10
2022-09-28T15:24:59.973Z,6.50
2022-09-28T15:27:34.888Z,5.20
2022-09-28T15:30:16.604Z,6.30
2022-09-28T15:32:44.594Z,7.60
2022-09-28T15:35:16.748Z,4.50
2022-09-28T15:37:44.720Z,4.50
2022-09-28T15:40:14.886Z,6.40
2022-09-28T15:42:44.800Z,7.80
2022-09-28T15:45:24.218Z,8.00
2022-09-28T15:47:57.224Z,7.90
2022-09-28T15:50:26.939Z,4.30
2022-09-28T15:52:57.163Z,6.20
2022-09-28T15:55:27.130Z,3.60
2022-09-28T15:58:15.529Z,5.30
2022-09-28T16:00:44.219Z,3.80
2022-09-28T16:03:28.280Z,4.60
2022-09-28T16:06:06.362Z,5.90
2022-09-28T16:08:42.730Z,4.00
2022-09-28T16:11:14.181Z,4.60
2022-09-28T16:13:54.555Z,4.30
2022-09-28T16:16:25.327Z,6.20
2022-09-28T16:18:54.717Z,4.30
2022-09-28T16:21:28.983Z,4.60
2022-09-28T16:23:57.125Z,5.90
2022-09-28T16:26:31.637Z,6.30
2022-09-28T16:29:11.130Z,6.80
2022-09-28T16:31:42.828Z,6.00
2022-09-28T16:34:19.676Z,7.00
2022-09-28T16:36:49.013Z,6.40
2022-09-28T16:39:20.080Z,6.10
2022-09-28T16:41:49.277Z,4.80
2022-09-28T16:44:23.564Z,7.60
2022-09-28T16:46:55.307Z,6.10
2022-09-28T16:49:25.186Z,4.50
2022-09-28T16:51:54.496Z,5.80
2022-09-28T16:54:45.568Z,4.80
2022-09-28T16:57:15.460Z,5.40
2022-09-28T16:59:47.028Z,5.00
2022-09-28T17:02:45.051Z,5.70
2022-09-28T17:05:16.386Z,5.20
2022-09-28T17:07:46.788Z,6.80
2022-09-28T17:10:18.751Z,4.50
2022-09-28T17:12:46.989Z,6.50
2022-09-28T17:15:18.097Z,5.30
2022-09-28T17:17:48.989Z,6.70
2022-09-28T17:20:26.321Z,5.90
2022-09-28T17:22:55.941Z,6.10
2022-09-28T17:25:26.086Z,5.40
2022-09-28T17:27:57.682Z,5.80
2022-09-28T17:32:54.896Z,4.20
2022-09-28T17:35:35.144Z,6.70
2022-09-28T17:38:06.931Z,4.90
2022-09-28T17:40:43.129Z,5.70
2022-09-28T17:43:14.202Z,5.20
2022-09-28T17:45:44.374Z,4.90
2022-09-28T17:48:20.233Z,5.60
2022-09-28T17:50:48.970Z,7.10
2022-09-28T17:53:19.080Z,6.20
2022-09-28T17:55:49.995Z,4.90
2022-09-28T17:58:18.899Z,4.10
2022-09-28T18:00:47.545Z,4.90
2022-09-28T18:03:17.587Z,5.90
2022-09-28T18:05:47.778Z,6.60
2022-09-28T18:08:18.006Z,5.60
2022-09-28T18:10:46.432Z,5.30
2022-09-28T18:13:14.708Z,11.40
2022-09-28T18:15:50.162Z,5.10
2022-09-28T18:18:18.580Z,5.10
2022-09-28T18:20:46.614Z,5.10
2022-09-28T18:23:14.925Z,5.00
2022-09-28T18:25:43.663Z,4.70
2022-09-28T18:28:13.163Z,4.90
2022-09-28T18:30:42.541Z,8.90
2022-09-28T18:33:11.448Z,5.40
2022-09-28T18:35:39.398Z,7.20
2022-09-28T18:38:07.718Z,7.40
2022-09-28T18:40:35.793Z,6.40
2022-09-28T18:43:04.074Z,6.70
2022-09-28T18:45:34.274Z,6.90
2022-09-28T18:48:02.347Z,5.00
2022-09-28T18:50:30.312Z,5.90
2022-09-28T18:53:11.029Z,8.00
2022-09-28T18:55:39.617Z,5.30
2022-09-28T18:58:07.951Z,7.20
2022-09-28T19:00:37.141Z,5.90
2022-09-28T19:03:06.448Z,5.60
2022-09-28T19:05:34.623Z,5.60
2022-09-28T19:08:03.149Z,5.90
2022-09-28T19:10:31.209Z,7.70
2022-09-28T19:12:59.224Z,7.10
2022-09-28T19:15:27.180Z,5.80
2022-09-28T19:17:58.284Z,7.80
2022-09-28T19:20:25.915Z,7.80
2022-09-28T19:22:53.575Z,7.00
2022-09-28T19:25:21.281Z,9.10
2022-09-28T19:27:49.132Z,7.90
2022-09-28T19:30:16.851Z,5.10
2022-09-28T19:32:45.044Z,7.50
2022-09-28T19:35:12.990Z,7.40
2022-09-28T19:37:41.923Z,5.90
2022-09-28T19:40:10.615Z,7.60
2022-09-28T19:42:39.101Z,6.00
2022-09-28T19:45:08.424Z,5.70
2022-09-28T19:47:36.962Z,6.60
2022-09-28T19:50:06.525Z,4.50
2022-09-28T19:52:37.553Z,6.10
2022-09-28T19:55:06.569Z,6.60
2022-09-28T19:57:34.566Z,4.60
2022-09-28T20:00:04.075Z,5.00
2022-09-28T20:02:36.170Z,5.20
2022-09-28T20:05:04.837Z,5.40
2022-09-28T20:07:34.345Z,5.20
2022-09-28T20:10:02.343Z,4.20
2022-09-28T20:12:29.997Z,5.30
2022-09-28T20:14:57.529Z,4.10
2022-09-28T20:17:25.462Z,4.60
2022-09-28T20:19:53.366Z,4.50
2022-09-28T20:22:20.934Z,5.70
2022-09-28T20:24:49.096Z,5.90
2022-09-28T20:27:16.961Z,6.40
2022-09-28T20:29:44.616Z,4.70
2022-09-28T20:32:14.041Z,5.50
2022-09-28T20:34:42.400Z,6.00
2022-09-28T20:37:13.154Z,7.00
2022-09-28T20:39:44.816Z,5.60
2022-09-28T20:42:15.633Z,7.90
2022-09-28T20:44:43.858Z,6.70
2022-09-28T20:47:11.545Z,8.80
2022-09-28T20:49:39.351Z,6.60
2022-09-28T20:52:07.359Z,7.30
2022-09-28T20:54:34.878Z,6.80
2022-09-28T20:57:02.757Z,7.70
2022-09-28T20:59:30.687Z,7.00
2022-09-28T21:01:58.481Z,4.80
2022-09-28T21:04:26.569Z,7.40
2022-09-28T21:06:54.741Z,5.50
2022-09-28T21:09:22.406Z,5.80
2022-09-28T21:11:50.298Z,6.00
2022-09-28T21:14:18.192Z,5.40
2022-09-28T21:16:45.954Z,5.70
2022-09-28T21:19:13.637Z,7.70
2022-09-28T21:21:41.334Z,6.20
2022-09-28T21:24:09.757Z,6.20
2022-09-28T21:26:38.569Z,5.40
2022-09-28T21:29:07.844Z,5.40
2022-09-28T21:31:38.682Z,7.10
2022-09-28T21:34:06.817Z,5.20
2022-09-28T21:36:34.717Z,5.30
2022-09-28T21:39:04.958Z,6.50
2022-09-28T21:41:34.759Z,6.10
2022-09-28T21:44:03.023Z,7.00
2022-09-28T21:46:33.517Z,6.40
2022-09-28T21:49:02.341Z,4.70
2022-09-28T21:51:30.319Z,6.30
2022-09-28T21:53:57.966Z,4.20
2022-09-28T21:56:26.448Z,5.60
2022-09-28T21:58:54.748Z,4.60
2022-09-28T22:01:24.816Z,5.30
2022-09-28T22:03:53.526Z,5.80
2022-09-28T22:06:22.455Z,5.50
2022-09-28T22:08:50.305Z,5.40
2022-09-28T22:11:19.073Z,5.80
2022-09-28T22:13:48.380Z,5.90
2022-09-28T22:16:16.905Z,5.40
2022-09-28T22:18:45.034Z,5.40
2022-09-28T22:21:14.123Z,5.00
2022-09-28T22:23:42.190Z,5.70
2022-09-28T22:26:11.079Z,5.00
2022-09-28T22:28:39.867Z,8.90
2022-09-28T22:31:07.424Z,4.30
2022-09-28T22:33:36.179Z,5.00
2022-09-28T22:36:04.262Z,5.20
2022-09-28T22:38:32.059Z,5.20
2022-09-28T22:41:00.167Z,5.60
2022-09-28T22:43:28.318Z,6.20
2022-09-28T22:46:01.898Z,6.80
2022-09-28T22:48:30.173Z,5.10
2022-09-28T22:50:57.936Z,4.50
2022-09-28T22:53:25.901Z,4.50
2022-09-28T22:55:53.766Z,4.70
2022-09-28T22:58:21.324Z,6.80
2022-09-28T23:00:48.990Z,4.30
2022-09-28T23:03:17.495Z,6.40
2022-09-28T23:05:52.317Z,4.70
2022-09-28T23:08:20.573Z,4.10
2022-09-28T23:10:48.130Z,4.80
2022-09-28T23:13:16.322Z,4.70
2022-09-28T23:15:44.313Z,5.50
2022-09-28T23:18:12.034Z,5.30
2022-09-28T23:20:39.607Z,5.50
2022-09-28T23:23:07.665Z,5.50
2022-09-28T23:25:35.658Z,5.20
2022-09-28T23:28:03.300Z,4.10
2022-09-28T23:30:31.637Z,5.40
2022-09-28T23:32:59.274Z,5.10
2022-09-28T23:35:27.098Z,4.70
2022-09-28T23:37:54.982Z,4.00
2022-09-28T23:40:22.629Z,6.30
2022-09-28T23:42:50.339Z,4.60
2022-09-28T23:45:18.374Z,11.90
2022-09-28T23:47:45.891Z,4.90
2022-09-28T23:50:13.710Z,4.40
2022-09-28T23:52:42.212Z,5.10
2022-09-28T23:55:09.923Z,4.60
2022-09-28T23:57:40.474Z,4.80
